Time;durP1;ratioP1;P1;durP2;ratioP2;P2;SDS_P1;SDS_P2;PMS_P1;PMS_P2;Temp;Humidity;BMP_temperature;BMP_pressure;BME280_temperature;BME280_humidity;BME280_pressure;Samples;Min_cycle;Max_cycle;Signal;HPM_P1;HPM_P2
2022/07/21 00:01:59;;;;;;;20.58;19.27;;;;;;;-141.02;100.00;55844.97;5135676;27;20200;-83
2022/07/21 00:04:26;;;;;;;20.25;19.05;;;;;;;-141.02;100.00;55844.97;5135596;27;20236;-82
2022/07/21 00:06:53;;;;;;;20.88;19.58;;;;;;;-141.02;100.00;55844.97;5135611;27;20236;-82
2022/07/21 00:09:21;;;;;;;20.67;19.38;;;;;;;-141.02;100.00;55844.97;5135735;27;20207;-83
2022/07/21 00:11:48;;;;;;;21.10;19.80;;;;;;;-141.02;100.00;55844.97;5135726;27;20277;-81
2022/07/21 00:14:16;;;;;;;20.50;19.27;;;;;;;-141.02;100.00;55844.97;5135415;27;20193;-81
2022/07/21 00:16:43;;;;;;;20.40;19.20;;;;;;;-141.02;100.00;55844.97;5135443;27;20279;-81
2022/07/21 00:19:11;;;;;;;20.98;19.67;;;;;;;-141.02;100.00;55844.97;5135750;27;20200;-82
2022/07/21 00:21:38;;;;;;;20.58;19.27;;;;;;;-141.02;100.00;55844.97;5135593;27;20236;-82
2022/07/21 00:24:05;;;;;;;20.23;19.02;;;;;;;-141.02;100.00;55844.97;5135290;27;20218;-84
2022/07/21 00:26:34;;;;;;;20.67;19.38;;;;;;;-141.02;100.00;55844.97;5135238;27;20227;-82
2022/07/21 00:29:01;;;;;;;20.55;19.35;;;;;;;-141.02;100.00;55844.97;5135759;27;20279;-81
2022/07/21 00:31:28;;;;;;;20.70;19.40;;;;;;;-141.02;100.00;55844.97;5135329;27;20200;-82
2022/07/21 00:33:55;;;;;;;21.45;20.15;;;;;;;-141.02;100.00;55844.97;5135622;27;20678;-81
2022/07/21 00:36:22;;;;;;;20.98;19.67;;;;;;;-141.02;100.00;55844.97;5135326;27;20231;-81
2022/07/21 00:38:49;;;;;;;21.00;19.70;;;;;;;-141.02;100.00;55844.97;5134740;27;20337;-81
2022/07/21 00:41:17;;;;;;;20.50;19.30;;;;;;;-141.02;100.00;55844.97;5135203;27;20653;-83
2022/07/21 00:43:45;;;;;;;20.42;19.23;;;;;;;-141.02;100.00;55844.97;5134908;27;20238;-83
2022/07/21 00:46:12;;;;;;;20.23;19.02;;;;;;;-141.02;100.00;55844.97;5135156;27;20197;-81
2022/07/21 00:48:39;;;;;;;21.10;19.80;;;;;;;-141.02;100.00;55844.97;5135747;27;20201;-82
2022/07/21 00:51:07;;;;;;;20.70;19.40;;;;;;;-141.02;100.00;55844.97;5134739;27;20228;-81
2022/07/21 00:53:34;;;;;;;21.65;20.35;;;;;;;-141.02;100.00;55844.97;5134574;27;20263;-83
2022/07/21 00:56:01;;;;;;;21.60;20.30;;;;;;;-141.02;100.00;55844.97;5134648;27;20718;-83
2022/07/21 00:58:29;;;;;;;20.50;19.30;;;;;;;-141.02;100.00;55844.97;5134645;27;20269;-83
2022/07/21 01:00:57;;;;;;;21.40;20.10;;;;;;;-141.02;100.00;55844.97;5134750;27;20196;-84
2022/07/21 01:03:24;;;;;;;20.13;18.92;;;;;;;-141.02;100.00;55844.97;5134453;27;20696;-80
2022/07/21 01:05:51;;;;;;;19.75;18.65;;;;;;;-141.02;100.00;55844.97;5134781;27;20228;-83
2022/07/21 01:08:19;;;;;;;20.05;18.85;;;;;;;-141.02;100.00;55844.97;5134681;27;20218;-82
2022/07/21 01:10:46;;;;;;;20.98;19.70;;;;;;;-141.02;100.00;55844.97;5134380;27;20197;-84
2022/07/21 01:13:13;;;;;;;20.60;19.40;;;;;;;-141.02;100.00;55844.97;5133437;27;20315;-83
2022/07/21 01:15:40;;;;;;;20.48;19.27;;;;;;;-141.02;100.00;55844.97;5134243;27;20188;-82
2022/07/21 01:18:10;;;;;;;20.40;19.20;;;;;;;-141.02;100.00;55844.97;5134233;27;20682;-83
2022/07/21 01:20:39;;;;;;;20.05;18.85;;;;;;;-141.02;100.00;55844.97;5134133;27;20231;-80
2022/07/21 01:23:08;;;;;;;20.48;19.27;;;;;;;-141.02;100.00;55844.97;5134175;27;20707;-81
2022/07/21 01:25:35;;;;;;;20.60;19.40;;;;;;;-141.02;100.00;55844.97;5134256;27;20189;-84
2022/07/21 01:28:02;;;;;;;19.63;18.50;;;;;;;-141.02;100.00;55844.97;5134016;27;20200;-81
2022/07/21 01:30:29;;;;;;;19.60;18.40;;;;;;;-141.02;100.00;55844.97;5133902;27;20662;-81
2022/07/21 01:32:56;;;;;;;19.70;18.50;;;;;;;-141.02;100.00;55844.97;5133822;27;20224;-81
2022/07/21 01:35:23;;;;;;;19.55;18.45;;;;;;;-141.02;100.00;55844.97;5133943;27;20219;-81
2022/07/21 01:37:50;;;;;;;20.05;18.85;;;;;;;-141.02;100.00;55844.97;5133821;27;20224;-82
2022/07/21 01:43:05;;;;;;;20.15;18.95;;;;;;;-141.02;100.00;55844.97;5134155;27;20196;-83
2022/07/21 01:45:32;;;;;;;20.00;18.80;;;;;;;-141.02;100.00;55844.97;5133806;27;20197;-82
2022/07/21 01:47:59;;;;;;;19.95;18.75;;;;;;;-141.02;100.00;55844.97;5133733;27;20279;-82
2022/07/21 01:50:27;;;;;;;19.65;18.55;;;;;;;-141.02;100.00;55844.97;5134174;27;20284;-83
2022/07/21 01:52:55;;;;;;;19.88;18.70;;;;;;;-141.02;100.00;55844.97;5133500;27;20306;-82
2022/07/21 01:55:25;;;;;;;19.70;18.60;;;;;;;-141.02;100.00;55844.97;5133504;27;20289;-80
2022/07/21 01:57:53;;;;;;;18.77;17.77;;;;;;;-141.02;100.00;55844.97;5133388;27;20232;-82
2022/07/21 02:00:21;;;;;;;19.15;18.05;;;;;;;-141.02;100.00;55844.97;5133552;27;20689;-83
2022/07/21 02:02:48;;;;;;;18.92;17.83;;;;;;;-141.02;100.00;55844.97;5133937;27;20257;-82
2022/07/21 02:05:15;;;;;;;18.80;17.70;;;;;;;-141.02;100.00;55844.97;5133282;27;20192;-83
2022/07/21 02:07:42;;;;;;;19.13;18.02;;;;;;;-141.02;100.00;55844.97;5133452;27;20196;-81
2022/07/21 02:10:10;;;;;;;19.00;17.90;;;;;;;-141.02;100.00;55844.97;5133311;27;20206;-80
2022/07/21 02:12:38;;;;;;;18.80;17.70;;;;;;;-141.02;100.00;55844.97;5133326;27;20288;-83
2022/07/21 02:15:06;;;;;;;18.45;17.45;;;;;;;-141.02;100.00;55844.97;5133271;27;20192;-84
2022/07/21 02:17:33;;;;;;;18.42;17.42;;;;;;;-141.02;100.00;55844.97;5133113;27;20195;-81
2022/07/21 02:20:00;;;;;;;18.13;17.13;;;;;;;-141.02;100.00;55844.97;5133493;27;20249;-81
2022/07/21 02:22:27;;;;;;;18.70;17.70;;;;;;;-141.02;100.00;55844.97;5133093;27;20219;-81
2022/07/21 02:24:54;;;;;;;18.60;17.60;;;;;;;-141.02;100.00;55844.97;5132902;27;20195;-83
2022/07/21 02:27:21;;;;;;;18.15;17.15;;;;;;;-141.02;100.00;55844.97;5133342;27;20291;-81
2022/07/21 02:29:50;;;;;;;17.85;16.85;;;;;;;-141.02;100.00;55844.97;5133728;28;20249;-83
2022/07/21 02:32:17;;;;;;;18.13;17.13;;;;;;;-141.02;100.00;55844.97;5132943;28;20283;-81
2022/07/21 02:34:44;;;;;;;18.33;17.33;;;;;;;-141.02;100.00;55844.97;5132934;28;20275;-83
2022/07/21 02:37:11;;;;;;;18.10;17.10;;;;;;;-141.02;100.00;55844.97;5133009;28;20197;-80
2022/07/21 02:39:38;;;;;;;17.60;16.70;;;;;;;-141.02;100.00;55844.97;5132858;28;20236;-81
2022/07/21 02:42:05;;;;;;;17.60;16.70;;;;;;;-141.02;100.00;55844.97;5132904;28;20673;-82
2022/07/21 02:44:32;;;;;;;17.77;16.77;;;;;;;-141.02;100.00;55844.97;5133226;27;20714;-82
2022/07/21 02:47:01;;;;;;;17.55;16.65;;;;;;;-141.02;100.00;55844.97;5132863;28;20279;-83
2022/07/21 02:49:28;;;;;;;17.45;16.55;;;;;;;-141.02;100.00;55844.97;5132996;28;20210;-83
2022/07/21 02:51:55;;;;;;;17.42;16.52;;;;;;;-141.02;100.00;55844.97;5133426;28;20243;-84
2022/07/21 02:54:22;;;;;;;17.63;16.73;;;;;;;-141.02;100.00;55844.97;5133049;27;20642;-81
2022/07/21 02:56:49;;;;;;;17.58;16.67;;;;;;;-141.02;100.00;55844.97;5132772;27;20249;-83
2022/07/21 02:59:16;;;;;;;17.45;16.55;;;;;;;-141.02;100.00;55844.97;5133016;28;20600;-79
2022/07/21 03:01:43;;;;;;;17.13;16.23;;;;;;;-141.02;100.00;55844.97;5133483;28;20208;-82
2022/07/21 03:04:12;;;;;;;17.00;16.10;;;;;;;-141.02;100.00;55844.97;5132630;28;20253;-80
2022/07/21 03:06:39;;;;;;;17.00;16.10;;;;;;;-141.02;100.00;55844.97;5132737;28;20220;-83
2022/07/21 03:09:06;;;;;;;17.60;16.70;;;;;;;-141.02;100.00;55844.97;5132933;28;20261;-81
2022/07/21 03:11:33;;;;;;;17.73;16.80;;;;;;;-141.02;100.00;55844.97;5132930;28;20205;-83
2022/07/21 03:14:00;;;;;;;17.60;16.60;;;;;;;-141.02;100.00;55844.97;5132695;28;20224;-78
2022/07/21 03:16:28;;;;;;;17.27;16.38;;;;;;;-141.02;100.00;55844.97;5132598;28;20608;-84
2022/07/21 03:18:54;;;;;;;17.67;16.67;;;;;;;-141.02;100.00;55844.97;5133197;28;20192;-82
2022/07/21 03:21:23;;;;;;;17.30;16.40;;;;;;;-141.02;100.00;55844.97;5132772;28;20223;-83
2022/07/21 03:23:50;;;;;;;17.10;16.20;;;;;;;-141.02;100.00;55844.97;5132492;28;20758;-83
2022/07/21 03:26:17;;;;;;;16.88;15.98;;;;;;;-141.02;100.00;55844.97;5132822;28;20280;-82
2022/07/21 03:28:45;;;;;;;17.02;16.13;;;;;;;-141.02;100.00;55844.97;5132463;27;20625;-82
2022/07/21 03:31:12;;;;;;;17.00;16.10;;;;;;;-141.02;100.00;55844.97;5132849;27;20189;-83
2022/07/21 03:33:40;;;;;;;16.63;15.82;;;;;;;-141.02;100.00;55844.97;5132391;27;20701;-82
2022/07/21 03:36:08;;;;;;;16.80;16.00;;;;;;;-141.02;100.00;55844.97;5132507;27;20189;-83
2022/07/21 03:38:37;;;;;;;16.55;15.75;;;;;;;-141.02;100.00;55844.97;5135995;27;20232;-83
2022/07/21 03:41:04;;;;;;;16.90;16.10;;;;;;;-141.02;100.00;55844.97;5136039;27;20311;-81
2022/07/21 03:43:31;;;;;;;16.77;15.98;;;;;;;-141.02;100.00;55844.97;5136094;27;20261;-80
2022/07/21 03:45:58;;;;;;;16.70;15.85;;;;;;;-141.02;100.00;55844.97;5136317;27;20196;-83
2022/07/21 03:48:25;;;;;;;16.85;16.00;;;;;;;-141.02;100.00;55844.97;5136354;27;20249;-81
2022/07/21 03:50:52;;;;;;;17.38;16.48;;;;;;;-141.02;100.00;55844.97;5136182;27;20603;-83
2022/07/21 03:53:19;;;;;;;17.38;16.48;;;;;;;-141.02;100.00;55844.97;5135821;27;20228;-84
2022/07/21 03:55:48;;;;;;;18.80;17.80;;;;;;;-141.02;100.00;55844.97;5136189;27;20226;-84
2022/07/21 03:58:15;;;;;;;18.60;17.60;;;;;;;-141.02;100.00;55844.97;5136026;27;20225;-83
2022/07/21 04:00:44;;;;;;;19.55;18.35;;;;;;;-141.02;100.00;55844.97;5135884;27;20279;-84
2022/07/21 04:03:12;;;;;;;18.95;17.75;;;;;;;-141.02;100.00;55844.97;5135652;27;20287;-84
2022/07/21 04:05:41;;;;;;;19.17;18.00;;;;;;;-141.02;100.00;55844.97;5135999;27;20249;-83
2022/07/21 04:08:09;;;;;;;19.30;18.10;;;;;;;-141.02;100.00;55844.97;5135523;27;20292;-83
2022/07/21 04:10:38;;;;;;;19.27;18.08;;;;;;;-141.02;100.00;55844.97;5136334;27;20292;-82
2022/07/21 04:13:08;;;;;;;19.77;18.48;;;;;;;-141.02;100.00;55844.97;5135458;27;20280;-83
2022/07/21 04:15:35;;;;;;;19.55;18.25;;;;;;;-141.02;100.00;55844.97;5135522;27;20196;-84
2022/07/21 04:18:03;;;;;;;19.70;18.42;;;;;;;-141.02;100.00;55844.97;5135417;27;20196;-80
2022/07/21 04:20:30;;;;;;;19.67;18.38;;;;;;;-141.02;100.00;55844.97;5135343;27;20291;-84
2022/07/21 04:22:57;;;;;;;19.40;18.15;;;;;;;-141.02;100.00;55844.97;5135593;27;20674;-83
2022/07/21 04:25:24;;;;;;;19.80;18.50;;;;;;;-141.02;100.00;55844.97;5135521;27;20196;-84
2022/07/21 04:27:52;;;;;;;20.02;18.73;;;;;;;-141.02;100.00;55844.97;5135600;27;20623;-86
2022/07/21 04:30:23;;;;;;;20.25;18.85;;;;;;;-141.02;100.00;55844.97;5135455;27;20193;-84
2022/07/21 04:32:50;;;;;;;20.65;19.25;;;;;;;-141.02;100.00;55844.97;5135179;27;20626;-84
2022/07/21 04:35:17;;;;;;;20.20;18.80;;;;;;;-141.02;100.00;55844.97;5135088;27;20295;-83
2022/07/21 04:37:44;;;;;;;20.83;19.42;;;;;;;-141.02;100.00;55844.97;5135073;27;20636;-83
2022/07/21 04:40:14;;;;;;;20.38;19.08;;;;;;;-141.02;100.00;55844.97;5135276;27;20327;-85
2022/07/21 04:42:42;;;;;;;20.35;19.05;;;;;;;-141.02;100.00;55844.97;5134897;27;20727;-83
2022/07/21 04:45:11;;;;;;;20.25;18.95;;;;;;;-141.02;100.00;55844.97;5135058;27;20197;-84
2022/07/21 04:47:47;;;;;;;20.38;19.08;;;;;;;-141.02;100.00;55844.97;5135155;27;20200;-81
2022/07/21 04:50:14;;;;;;;20.60;19.20;;;;;;;-141.02;100.00;55844.97;5135485;27;20244;-83
2022/07/21 04:52:42;;;;;;;20.50;19.10;;;;;;;-141.02;100.00;55844.97;5135733;27;20263;-85
2022/07/21 04:55:10;;;;;;;20.60;19.20;;;;;;;-141.02;100.00;55844.97;5134660;27;20277;-84
2022/07/21 04:57:41;;;;;;;20.75;19.35;;;;;;;-141.02;100.00;55844.97;5134988;27;20235;-87
2022/07/21 05:00:11;;;;;;;20.50;19.13;;;;;;;-141.02;100.00;55844.97;5134655;27;20279;-86
2022/07/21 05:02:38;;;;;;;20.25;18.95;;;;;;;-141.02;100.00;55844.97;5134779;27;20569;-86
2022/07/21 05:05:08;;;;;;;20.38;18.98;;;;;;;-141.02;100.00;55844.97;5134479;27;20737;-85
2022/07/21 05:07:35;;;;;;;20.33;18.92;;;;;;;-141.02;100.00;55844.97;5134836;27;20188;-85
2022/07/21 05:10:05;;;;;;;20.30;19.00;;;;;;;-141.02;100.00;55844.97;5134756;27;20287;-85
2022/07/21 05:12:32;;;;;;;20.52;19.13;;;;;;;-141.02;100.00;55844.97;5134318;27;20196;-85
2022/07/21 05:14:59;;;;;;;20.48;19.08;;;;;;;-141.02;100.00;55844.97;5134243;27;20228;-86
2022/07/21 05:17:26;;;;;;;20.67;19.38;;;;;;;-141.02;100.00;55844.97;5134579;27;20228;-87
2022/07/21 05:19:53;;;;;;;20.23;18.92;;;;;;;-141.02;100.00;55844.97;5134359;27;20275;-87
2022/07/21 05:22:22;;;;;;;20.20;18.90;;;;;;;-141.02;100.00;55844.97;5134614;27;20220;-87
2022/07/21 05:24:49;;;;;;;20.15;18.88;;;;;;;-141.02;100.00;55844.97;5134181;27;20208;-85
2022/07/21 05:27:16;;;;;;;19.98;18.77;;;;;;;-141.02;100.00;55844.97;5134429;27;20224;-85
2022/07/21 05:29:43;;;;;;;20.17;18.88;;;;;;;-141.02;100.00;55844.97;5134069;27;20661;-86
2022/07/21 05:32:10;;;;;;;20.08;18.77;;;;;;;-141.02;100.00;55844.97;5134037;27;20239;-86
2022/07/21 05:34:37;;;;;;;20.05;18.75;;;;;;;-141.02;100.00;55844.97;5133965;27;20325;-87
2022/07/21 05:37:04;;;;;;;20.38;19.08;;;;;;;-141.02;100.00;55844.97;5134080;27;20576;-86
2022/07/21 05:39:32;;;;;;;20.50;19.10;;;;;;;-141.02;100.00;55844.97;5133595;27;20612;-88
2022/07/21 05:41:59;;;;;;;20.13;18.83;;;;;;;-141.02;100.00;55844.97;5134127;27;20192;-85
2022/07/21 05:44:26;;;;;;;20.25;18.95;;;;;;;-141.02;100.00;55844.97;5134904;27;20253;-87
2022/07/21 05:46:53;;;;;;;20.00;18.70;;;;;;;-141.02;100.00;55844.97;5134678;27;20283;-87
2022/07/21 05:49:20;;;;;;;19.80;18.50;;;;;;;-141.02;100.00;55844.97;5134847;27;20288;-86
2022/07/21 05:51:48;;;;;;;20.08;18.77;;;;;;;-141.02;100.00;55844.97;5133575;27;20224;-85
2022/07/21 05:54:15;;;;;;;20.20;18.90;;;;;;;-141.02;100.00;55844.97;5133506;27;20230;-86
2022/07/21 05:56:43;;;;;;;20.20;18.90;;;;;;;-141.02;59.57;81426.69;5133610;27;20658;-85
2022/07/21 05:59:10;;;;;;;19.90;18.67;;;;;;;-141.02;63.49;81182.03;5133279;27;20192;-88
2022/07/21 06:01:37;;;;;;;20.10;18.80;;;;;;;-141.02;63.01;81426.69;5133371;27;20200;-86
2022/07/21 06:04:04;;;;;;;20.08;18.77;;;;;;;-141.02;100.00;55844.97;5133419;27;20192;-85
2022/07/21 06:06:31;;;;;;;20.20;18.90;;;;;;;-141.02;62.95;81182.03;5133719;27;20200;-85
2022/07/21 06:08:59;;;;;;;19.88;18.58;;;;;;;-141.02;62.61;81302.41;5133590;27;20218;-85
2022/07/21 06:11:27;;;;;;;19.75;18.45;;;;;;;-141.02;100.00;55844.97;5134126;27;20568;-85
2022/07/21 06:13:55;;;;;;;19.70;18.40;;;;;;;-94.73;100.00;55844.97;5133249;27;20224;-87
2022/07/21 06:16:23;;;;;;;20.50;19.20;;;;;;;-141.02;100.00;55844.97;5133145;27;20588;-83
2022/07/21 06:18:50;;;;;;;20.00;18.70;;;;;;;-141.02;100.00;55844.97;5133207;27;20234;-86
2022/07/21 06:21:17;;;;;;;20.10;18.80;;;;;;;-141.02;100.00;55844.97;5133460;27;20291;-84
2022/07/21 06:23:44;;;;;;;19.77;18.48;;;;;;;-141.02;100.00;55844.97;5134303;27;20257;-85
2022/07/21 06:26:12;;;;;;;20.58;19.27;;;;;;;-141.02;100.00;55844.97;5133430;27;20192;-85
2022/07/21 06:28:39;;;;;;;19.98;18.67;;;;;;;-141.02;60.50;81263.59;5133131;27;20208;-85
2022/07/21 06:31:07;;;;;;;30.92;28.73;;;;;;;-141.02;59.80;81215.06;5133213;27;20228;-83
2022/07/21 06:33:34;;;;;;;21.30;19.90;;;;;;;-141.02;59.72;81154.88;5133190;28;20192;-83
2022/07/21 06:36:01;;;;;;;20.05;18.75;;;;;;;-141.02;59.34;80890.84;5133796;28;20223;-87
2022/07/21 06:38:28;;;;;;;20.05;18.75;;;;;;;-141.02;100.00;55844.97;5134358;28;20196;-84
2022/07/21 06:40:55;;;;;;;19.80;18.58;;;;;;;-141.02;100.00;55844.97;5133261;27;20224;-85
2022/07/21 06:43:22;;;;;;;20.05;18.75;;;;;;;-141.02;100.00;55844.97;5132966;28;20633;-84
2022/07/21 06:45:50;;;;;;;19.95;18.75;;;;;;;-141.02;100.00;55844.97;5133246;28;20220;-82
2022/07/21 06:48:19;;;;;;;19.85;18.65;;;;;;;-141.02;100.00;55844.97;5133146;27;20245;-86
2022/07/21 06:50:46;;;;;;;19.98;18.67;;;;;;;-141.02;60.11;82259.75;5134369;28;20625;-85
2022/07/21 06:53:13;;;;;;;20.25;18.95;;;;;;;-141.02;100.00;55844.97;5132940;28;20188;-84
2022/07/21 06:55:41;;;;;;;22.85;21.35;;;;;;;-141.02;100.00;55844.97;5133116;28;20712;-85
2022/07/21 06:58:13;;;;;;;20.20;18.90;;;;;;;-94.73;59.51;46905.38;5133496;28;20239;-86
2022/07/21 07:00:40;;;;;;;19.98;18.77;;;;;;;-141.02;60.06;81283.00;5135132;27;20204;-87
2022/07/21 07:03:07;;;;;;;19.52;18.33;;;;;;;-141.02;100.00;55844.97;5133608;28;20211;-86
2022/07/21 07:05:36;;;;;;;20.25;19.05;;;;;;;-141.02;100.00;55844.97;5133256;28;20184;-85
2022/07/21 07:08:04;;;;;;;20.10;18.88;;;;;;;-141.02;100.00;55844.97;5133072;28;20279;-84
2022/07/21 07:10:31;;;;;;;20.23;18.92;;;;;;;-141.02;100.00;55844.97;5133127;27;20242;-83
2022/07/21 07:12:58;;;;;;;19.75;18.55;;;;;;;-141.02;100.00;55844.97;5136437;27;20245;-85
2022/07/21 07:15:26;;;;;;;19.70;18.50;;;;;;;-141.02;100.00;55844.97;5137824;27;20287;-77
2022/07/21 07:17:53;;;;;;;20.10;18.80;;;;;;;-141.02;100.00;55844.97;5137621;27;20192;-85
2022/07/21 07:20:21;;;;;;;20.33;19.02;;;;;;;-141.02;100.00;55844.97;5138359;27;20192;-84
2022/07/21 07:22:49;;;;;;;20.27;18.98;;;;;;;-141.02;100.00;55844.97;5138149;27;20765;-87
2022/07/21 07:25:17;;;;;;;19.75;18.55;;;;;;;-141.02;100.00;55844.97;5139271;27;20254;-83
2022/07/21 07:27:44;;;;;;;20.50;19.20;;;;;;;-141.02;100.00;55844.97;5137824;27;20189;-86
2022/07/21 07:30:13;;;;;;;19.48;18.27;;;;;;;-141.02;100.00;55844.97;5138971;27;20610;-84
2022/07/21 07:32:40;;;;;;;19.98;18.77;;;;;;;-141.02;58.42;81112.16;5137237;27;20220;-86
2022/07/21 07:35:10;;;;;;;19.92;18.73;;;;;;;-141.02;100.00;55844.97;5137163;27;20255;-84
2022/07/21 07:37:37;;;;;;;19.90;18.70;;;;;;;-141.02;100.00;55844.97;5137123;27;20254;-88
2022/07/21 07:40:09;;;;;;;19.38;18.17;;;;;;;-141.02;100.00;55844.97;5137102;27;20228;-84
2022/07/21 07:42:38;;;;;;;19.92;18.73;;;;;;;-141.02;100.00;55844.97;5136827;27;20657;-86
2022/07/21 07:45:07;;;;;;;20.73;19.42;;;;;;;-141.02;100.00;55844.97;5137415;27;20197;-86
2022/07/21 07:47:34;;;;;;;20.00;18.80;;;;;;;-141.02;100.00;55844.97;5136838;27;20665;-86
2022/07/21 07:50:01;;;;;;;20.30;19.10;;;;;;;-141.02;100.00;55844.97;5137147;27;20204;-86
2022/07/21 07:52:29;;;;;;;20.30;19.10;;;;;;;-141.02;100.00;55844.97;5136461;27;20257;-85
2022/07/21 07:54:56;;;;;;;19.70;18.50;;;;;;;-141.02;100.00;55844.97;5138006;27;20721;-86
2022/07/21 07:57:24;;;;;;;19.30;18.10;;;;;;;-141.02;100.00;55844.97;5137485;27;20203;-82
2022/07/21 07:59:51;;;;;;;20.17;18.98;;;;;;;-141.02;100.00;55844.97;5136723;27;20614;-85
2022/07/21 08:02:19;;;;;;;20.23;18.98;;;;;;;-141.02;100.00;55844.97;5136807;27;20630;-86
2022/07/21 08:04:46;;;;;;;20.48;19.25;;;;;;;-141.02;100.00;55844.97;5136877;27;20287;-84
2022/07/21 08:07:13;;;;;;;20.40;19.15;;;;;;;-141.02;100.00;55844.97;5136597;27;20197;-86
2022/07/21 08:09:40;;;;;;;21.30;20.00;;;;;;;-141.02;100.00;55844.97;5138318;27;20242;-84
2022/07/21 08:12:08;;;;;;;20.75;19.45;;;;;;;-141.02;100.00;55844.97;5137327;27;20200;-83
2022/07/21 08:14:37;;;;;;;21.42;20.02;;;;;;;-141.02;100.00;55844.97;5137019;27;20285;-86
2022/07/21 08:17:04;;;;;;;20.23;18.95;;;;;;;-141.02;100.00;55844.97;5137313;27;20204;-81
2022/07/21 08:19:31;;;;;;;20.30;19.10;;;;;;;-141.02;100.00;55844.97;5136870;27;20220;-87
2022/07/21 08:21:58;;;;;;;21.42;20.13;;;;;;;-141.02;100.00;55844.97;5135882;27;20232;-82
2022/07/21 08:24:25;;;;;;;21.92;20.52;;;;;;;-141.02;100.00;55844.97;5135643;27;20203;-87
2022/07/21 08:26:52;;;;;;;21.90;20.60;;;;;;;-141.02;100.00;55844.97;5136183;27;20197;-83
2022/07/21 08:29:19;;;;;;;20.38;19.10;;;;;;;-141.02;100.00;55844.97;5136113;27;20235;-82
2022/07/21 08:31:47;;;;;;;20.45;19.15;;;;;;;-141.02;100.00;55844.97;5135811;27;20648;-84
2022/07/21 08:34:14;;;;;;;21.42;20.02;;;;;;;-141.02;100.00;55844.97;5135915;27;20693;-85
2022/07/21 08:36:41;;;;;;;21.20;19.90;;;;;;;-141.02;100.00;55844.97;5135223;27;20192;-81
2022/07/21 08:39:08;;;;;;;21.38;20.08;;;;;;;-141.02;100.00;55844.97;5135259;27;20228;-84
2022/07/21 08:41:36;;;;;;;21.73;20.33;;;;;;;-141.02;100.00;55844.97;5135656;27;20188;-83
2022/07/21 08:44:03;;;;;;;21.85;20.55;;;;;;;-141.02;100.00;55844.97;5135519;27;20280;-85
2022/07/21 08:46:32;;;;;;;21.48;20.17;;;;;;;-141.02;100.00;55844.97;5135598;27;20224;-86
2022/07/21 08:49:02;;;;;;;21.45;20.15;;;;;;;-141.02;100.00;55844.97;5135149;27;20620;-83
2022/07/21 08:51:33;;;;;;;21.50;20.15;;;;;;;-141.02;100.00;55844.97;5135801;27;20550;-84
2022/07/21 08:54:00;;;;;;;21.63;20.33;;;;;;;-141.02;100.00;55844.97;5135373;27;20191;-82
2022/07/21 08:56:27;;;;;;;21.02;19.70;;;;;;;-141.02;100.00;55844.97;5135340;27;20661;-86
2022/07/21 08:58:54;;;;;;;20.92;19.63;;;;;;;-141.02;100.00;55844.97;5134991;27;20566;-85
2022/07/21 09:01:23;;;;;;;20.70;19.40;;;;;;;-141.02;100.00;55844.97;5135663;27;20193;-85
2022/07/21 09:03:51;;;;;;;21.70;20.33;;;;;;;-141.02;100.00;55844.97;5135714;27;20228;-82
2022/07/21 09:06:21;;;;;;;21.58;20.17;;;;;;;-141.02;100.00;55844.97;5135401;27;20279;-81
2022/07/21 09:08:50;;;;;;;20.33;19.02;;;;;;;-141.02;100.00;55844.97;5135676;27;20201;-85
2022/07/21 09:11:19;;;;;;;20.90;19.52;;;;;;;-141.02;100.00;55844.97;5134611;27;20283;-83
2022/07/21 09:13:51;;;;;;;21.25;19.85;;;;;;;-141.02;48.21;80378.34;5134890;27;20607;-78
2022/07/21 09:16:35;;;;;;;21.33;19.92;;;;;;;-141.02;49.04;80393.88;5135129;27;20219;-83
2022/07/21 09:19:03;;;;;;;21.50;20.10;;;;;;;-141.02;100.00;55844.97;5134919;27;20207;-85
2022/07/21 09:21:32;;;;;;;21.50;20.10;;;;;;;-141.02;47.92;80347.28;5136376;27;20199;-85
2022/07/21 09:24:14;;;;;;;21.40;20.00;;;;;;;-141.02;100.00;60801.19;5134699;27;20276;-82
2022/07/21 09:27:05;;;;;;;20.70;19.40;;;;;;;-141.02;46.21;80145.44;5134736;27;20633;-86
2022/07/21 09:29:39;;;;;;;21.15;19.85;;;;;;;-141.02;100.00;80147.00;5136017;27;20246;-90
2022/07/21 09:32:21;;;;;;;21.98;20.58;;;;;;;-141.02;100.00;104150.47;5135837;27;20569;-84
2022/07/21 09:34:49;;;;;;;21.38;19.98;;;;;;;-141.02;46.78;80192.03;5134030;27;20302;-81
2022/07/21 09:37:20;;;;;;;21.75;20.35;;;;;;;-141.02;100.00;55844.97;5134941;27;20253;-82
2022/07/21 09:39:49;;;;;;;21.98;20.67;;;;;;;-141.02;100.00;55844.97;5134110;27;20319;-84
2022/07/21 09:42:19;;;;;;;22.02;20.63;;;;;;;-141.02;100.00;55844.97;5134691;27;20648;-84
2022/07/21 09:44:48;;;;;;;22.40;20.95;;;;;;;-141.02;100.00;55844.97;5134456;27;20245;-82
2022/07/21 09:47:17;;;;;;;22.08;20.67;;;;;;;-141.02;100.00;55844.97;5134189;27;20227;-83
2022/07/21 09:49:45;;;;;;;21.58;20.17;;;;;;;-141.02;100.00;55844.97;5134325;27;20279;-79
2022/07/21 09:52:29;;;;;;;22.33;20.92;;;;;;;-141.02;100.00;55844.97;5134054;27;20282;-87
2022/07/21 09:54:58;;;;;;;22.52;21.13;;;;;;;-141.02;100.00;55844.97;5134498;27;20251;-74
2022/07/21 09:57:26;;;;;;;22.08;20.67;;;;;;;-141.02;100.00;55844.97;5133882;27;20195;-80
2022/07/21 09:59:53;;;;;;;22.10;20.70;;;;;;;-141.02;100.00;55844.97;5134148;27;20279;-82
2022/07/21 10:02:23;;;;;;;21.98;20.63;;;;;;;-141.02;100.00;55844.97;5134394;27;20298;-80
2022/07/21 10:04:57;;;;;;;22.20;20.80;;;;;;;-141.02;100.00;55844.97;5133607;27;20567;-79
2022/07/21 10:07:26;;;;;;;22.25;20.85;;;;;;;-141.02;100.00;55844.97;5133565;27;20759;-81
2022/07/21 10:09:54;;;;;;;22.23;20.83;;;;;;;-141.02;100.00;55844.97;5133821;27;20208;-80
2022/07/21 10:12:22;;;;;;;22.98;21.58;;;;;;;-141.02;100.00;55844.97;5133682;27;20706;-79
2022/07/21 10:14:49;;;;;;;21.92;20.63;;;;;;;-141.02;100.00;55844.97;5133734;27;20216;-82
2022/07/21 10:17:17;;;;;;;22.80;21.30;;;;;;;-141.02;100.00;55844.97;5133725;27;20196;-82
2022/07/21 10:19:54;;;;;;;26.08;24.45;;;;;;;-141.02;100.00;80051.91;5133723;27;20196;-84
2022/07/21 10:22:32;;;;;;;21.88;20.48;;;;;;;-141.02;45.13;80017.34;5134113;27;20213;-81
2022/07/21 10:25:00;;;;;;;21.60;20.20;;;;;;;-141.02;46.99;80320.13;5133726;27;20223;-86
2022/07/21 10:27:27;;;;;;;22.08;20.67;;;;;;;-141.02;100.00;55844.97;5133486;27;20658;-83
2022/07/21 10:29:55;;;;;;;22.13;20.73;;;;;;;;;;5133674;27;20260;-84
2022/07/21 10:32:25;;;;;;;21.35;19.95;;;;;;;-141.02;46.94;80277.41;5133514;27;20249;-86
2022/07/21 10:34:53;;;;;;;21.15;19.85;;;;;;;-141.02;100.00;55844.97;5133221;27;20646;-84
2022/07/21 10:37:49;;;;;;;21.70;20.30;;;;;;;-141.02;100.00;55844.97;5133271;27;20194;-83
2022/07/21 10:40:36;;;;;;;21.70;20.30;;;;;;;-141.02;100.00;55844.97;5133148;28;20310;-80
2022/07/21 10:43:38;;;;;;;21.45;20.05;;;;;;;-141.02;100.00;139105.03;5133350;27;20668;-81
2022/07/21 10:46:38;;;;;;;20.88;19.58;;;;;;;-141.02;46.46;80174.56;5129259;27;20195;-86
2022/07/21 10:49:07;;;;;;;21.90;20.50;;;;;;;-141.02;46.55;80164.84;5138333;27;20222;-83
2022/07/21 10:51:36;;;;;;;21.60;20.20;;;;;;;-141.02;46.05;80108.56;5137909;27;20315;-86
2022/07/21 10:54:24;;;;;;;21.80;20.40;;;;;;;-141.02;45.88;80067.81;5137270;27;20192;-87
2022/07/21 10:57:24;;;;;;;21.50;20.20;;;;;;;-141.02;0.00;55844.97;5137468;27;20227;-89
2022/07/21 11:00:23;;;;;;;22.60;21.20;;;;;;;-141.02;100.00;55844.97;5137632;27;20613;-87
2022/07/21 11:02:52;;;;;;;22.27;20.88;;;;;;;-94.73;45.33;55845.25;5138155;27;20202;-85
2022/07/21 11:05:20;;;;;;;22.33;20.92;;;;;;;-141.02;45.35;80060.03;5137225;27;20637;-83